Time;durP1;ratioP1;P1;durP2;ratioP2;P2;SDS_P1;SDS_P2;PMS_P1;PMS_P2;Temp;Humidity;BMP_temperature;BMP_pressure;BME280_temperature;BME280_humidity;BME280_pressure;Samples;Min_cycle;Max_cycle;Signal;HPM_P1;HPM_P2
2022/07/16 00:01:25;;;;;;;;;;;15.70;99.90;;;;;;5033513;28;19959;-77
2022/07/16 00:03:52;;;;;;;;;;;15.70;99.90;;;;;;5044883;28;19913;-78
2022/07/16 00:06:18;;;;;;;;;;;15.70;99.90;;;;;;5033735;28;20211;-76
2022/07/16 00:08:43;;;;;;;;;;;15.70;99.90;;;;;;5033902;28;20000;-76
2022/07/16 00:11:09;;;;;;;;;;;15.80;99.90;;;;;;5033043;28;20051;-77
2022/07/16 00:13:34;;;;;;;;;;;15.80;99.90;;;;;;5035783;28;19913;-76
2022/07/16 00:16:00;;;;;;;;;;;15.80;99.90;;;;;;5035470;28;20004;-80
2022/07/16 00:21:10;;;;;;;;;;;15.80;99.90;;;;;;5035430;28;19932;-77
2022/07/16 00:23:35;;;;;;;;;;;15.90;99.90;;;;;;5034695;28;19913;-76
2022/07/16 00:26:01;;;;;;;;;;;15.90;99.90;;;;;;5035596;28;19955;-88
2022/07/16 00:28:26;;;;;;;;;;;15.80;99.90;;;;;;5035511;28;19936;-79
2022/07/16 00:30:52;;;;;;;;;;;15.80;99.90;;;;;;5035522;28;19909;-76
2022/07/16 00:33:17;;;;;;;;;;;15.80;99.90;;;;;;5035279;28;19920;-76
2022/07/16 00:35:43;;;;;;;;;;;15.80;99.90;;;;;;5035534;28;19913;-77
2022/07/16 00:38:08;;;;;;;;;;;15.80;99.90;;;;;;5035673;28;20336;-77
2022/07/16 00:40:34;;;;;;;;;;;15.90;99.90;;;;;;5033449;28;20327;-76
2022/07/16 00:43:01;;;;;;;;;;;15.80;99.90;;;;;;5034919;28;19917;-88
2022/07/16 00:45:26;;;;;;;;;;;15.80;99.90;;;;;;5035528;28;19913;-77
2022/07/16 00:47:52;;;;;;;;;;;15.80;99.90;;;;;;5033183;28;19967;-76
2022/07/16 00:50:18;;;;;;;;;;;15.80;99.90;;;;;;5035311;28;19913;-76
2022/07/16 00:52:43;;;;;;;;;;;15.80;99.90;;;;;;5034656;28;20004;-77
2022/07/16 00:55:09;;;;;;;;;;;15.90;99.90;;;;;;5035259;28;20259;-76
2022/07/16 00:57:35;;;;;;;;;;;16.00;99.90;;;;;;5033770;28;20259;-78
2022/07/16 01:00:00;;;;;;;;;;;16.00;99.90;;;;;;5034770;28;19979;-87
2022/07/16 01:02:26;;;;;;;;;;;16.00;99.90;;;;;;5032677;28;20309;-77
2022/07/16 01:04:52;;;;;;;;;;;16.00;99.90;;;;;;5034544;28;19959;-77
2022/07/16 01:07:17;;;;;;;;;;;16.10;99.90;;;;;;5031776;28;20020;-78
2022/07/16 01:09:43;;;;;;;;;;;16.10;99.90;;;;;;5033604;28;19957;-77
2022/07/16 01:12:09;;;;;;;;;;;16.10;99.90;;;;;;5033786;28;20015;-78
2022/07/16 01:14:35;;;;;;;;;;;16.20;99.90;;;;;;5031951;28;19925;-77
2022/07/16 01:17:00;;;;;;;;;;;16.20;99.90;;;;;;5035298;28;19939;-78
2022/07/16 01:19:26;;;;;;;;;;;16.10;99.90;;;;;;5034947;28;19909;-78
2022/07/16 01:21:51;;;;;;;;;;;16.10;99.90;;;;;;5034479;28;19913;-79
2022/07/16 01:24:17;;;;;;;;;;;16.00;99.90;;;;;;5029012;28;19921;-78
2022/07/16 01:26:42;;;;;;;;;;;16.00;99.90;;;;;;5034329;28;20324;-88
2022/07/16 01:29:08;;;;;;;;;;;16.00;99.90;;;;;;5035170;28;19913;-79
2022/07/16 01:31:34;;;;;;;;;;;15.90;99.90;;;;;;5032245;28;19921;-77
2022/07/16 01:36:51;;;;;;;;;;;15.80;99.90;;;;;;5039057;28;20038;-78
2022/07/16 01:39:17;;;;;;;;;;;15.80;99.90;;;;;;5044507;28;19949;-77
2022/07/16 01:41:48;;;;;;;;;;;15.80;99.90;;;;;;5034211;28;19959;-87
2022/07/16 01:44:14;;;;;;;;;;;15.70;99.90;;;;;;5037216;28;19923;-89
2022/07/16 01:46:39;;;;;;;;;;;15.60;99.90;;;;;;5042407;28;20220;-78
2022/07/16 01:49:05;;;;;;;;;;;15.60;99.90;;;;;;5034043;28;20292;-80
2022/07/16 01:51:30;;;;;;;;;;;15.60;99.90;;;;;;5032974;28;20312;-80
2022/07/16 01:53:56;;;;;;;;;;;15.60;99.90;;;;;;5033352;28;19914;-81
2022/07/16 01:56:21;;;;;;;;;;;15.60;99.90;;;;;;5034304;28;19919;-81
2022/07/16 01:58:47;;;;;;;;;;;15.60;99.90;;;;;;5043909;28;19909;-81
2022/07/16 02:01:12;;;;;;;;;;;15.70;99.90;;;;;;5039717;28;19953;-80
2022/07/16 02:03:38;;;;;;;;;;;15.80;99.90;;;;;;5040183;28;20272;-79
2022/07/16 02:06:03;;;;;;;;;;;15.90;99.90;;;;;;5033481;28;19963;-79
2022/07/16 02:08:29;;;;;;;;;;;15.90;99.90;;;;;;5033278;28;19921;-78
2022/07/16 02:10:55;;;;;;;;;;;15.90;99.90;;;;;;5035549;28;19923;-79
2022/07/16 02:13:20;;;;;;;;;;;15.90;99.90;;;;;;5038157;28;19912;-83
2022/07/16 02:15:46;;;;;;;;;;;15.90;99.90;;;;;;5035158;28;20239;-79
2022/07/16 02:18:11;;;;;;;;;;;16.00;99.90;;;;;;5039546;28;20510;-78
2022/07/16 02:20:37;;;;;;;;;;;16.00;99.90;;;;;;5042373;28;19922;-81
2022/07/16 02:23:03;;;;;;;;;;;16.00;99.90;;;;;;5038010;28;20193;-80
2022/07/16 02:25:28;;;;;;;;;;;16.00;99.90;;;;;;5036599;28;19913;-80
2022/07/16 02:28:06;;;;;;;;;;;16.00;99.90;;;;;;5046584;28;19942;-80
2022/07/16 02:30:32;;;;;;;;;;;16.00;99.90;;;;;;5049882;28;19917;-81
2022/07/16 02:32:58;;;;;;;;;;;16.00;99.90;;;;;;5050846;28;20219;-83
2022/07/16 02:35:23;;;;;;;;;;;16.00;99.90;;;;;;5042794;28;19920;-80
2022/07/16 02:37:49;;;;;;;;;;;16.00;99.90;;;;;;5055847;28;19959;-79
2022/07/16 02:40:15;;;;;;;;;;;16.00;99.90;;;;;;5046046;28;20358;-80
2022/07/16 02:42:40;;;;;;;;;;;15.90;99.90;;;;;;5053335;28;20001;-81
2022/07/16 02:45:07;;;;;;;;;;;15.90;99.90;;;;;;5046217;28;19947;-79
2022/07/16 02:47:33;;;;;;;;;;;15.90;99.90;;;;;;5045777;28;20339;-81
2022/07/16 02:49:59;;;;;;;;;;;15.80;99.90;;;;;;5050637;28;19917;-84
2022/07/16 02:52:24;;;;;;;;;;;15.70;99.90;;;;;;5054188;28;19913;-79
2022/07/16 02:54:50;;;;;;;;;;;15.70;99.90;;;;;;5049794;28;19921;-83
2022/07/16 02:57:15;;;;;;;;;;;15.70;99.90;;;;;;5048728;28;20340;-80
2022/07/16 02:59:41;;;;;;;;;;;15.80;99.90;;;;;;5046479;28;19913;-80
2022/07/16 03:02:06;;;;;;;;;;;15.80;99.90;;;;;;5044226;28;19913;-77
2022/07/16 03:04:32;;;;;;;;;;;15.90;99.90;;;;;;5044868;28;19944;-81
2022/07/16 03:06:58;;;;;;;;;;;15.90;99.90;;;;;;5044989;28;19913;-78
2022/07/16 03:09:23;;;;;;;;;;;16.00;99.90;;;;;;5051100;28;19967;-78
2022/07/16 03:11:49;;;;;;;;;;;16.00;99.90;;;;;;5047672;28;19929;-78
2022/07/16 03:14:14;;;;;;;;;;;16.00;99.90;;;;;;5053556;28;19959;-77
2022/07/16 03:16:40;;;;;;;;;;;16.00;99.90;;;;;;5034265;28;19935;-78
2022/07/16 03:19:05;;;;;;;;;;;16.00;99.90;;;;;;5034422;28;19997;-81
2022/07/16 03:21:31;;;;;;;;;;;16.00;99.90;;;;;;5035831;28;20012;-80
2022/07/16 03:23:57;;;;;;;;;;;16.00;99.90;;;;;;5032800;28;19913;-80
2022/07/16 03:26:22;;;;;;;;;;;16.00;99.90;;;;;;5032670;28;19943;-79
2022/07/16 03:28:48;;;;;;;;;;;16.00;99.90;;;;;;5036697;28;20011;-80
2022/07/16 03:31:15;;;;;;;;;;;16.00;99.90;;;;;;5035836;28;19921;-81
2022/07/16 03:33:40;;;;;;;;;;;15.90;99.90;;;;;;5034577;28;19917;-77
2022/07/16 03:36:06;;;;;;;;;;;16.00;99.90;;;;;;5035129;28;20415;-80
2022/07/16 03:41:16;;;;;;;;;;;16.00;99.90;;;;;;5036672;28;20322;-79
2022/07/16 03:43:41;;;;;;;;;;;16.00;99.90;;;;;;5027697;28;19953;-76
2022/07/16 03:46:12;;;;;;;;;;;16.00;99.90;;;;;;5042881;28;19909;-77
2022/07/16 03:48:37;;;;;;;;;;;16.00;99.90;;;;;;5029169;28;20004;-78
2022/07/16 03:51:04;;;;;;;;;;;16.00;99.90;;;;;;5049841;28;20063;-87
2022/07/16 03:53:29;;;;;;;;;;;15.90;99.90;;;;;;5036781;28;19924;-80
2022/07/16 03:55:56;;;;;;;;;;;15.90;99.90;;;;;;5033928;28;19921;-80
2022/07/16 03:58:21;;;;;;;;;;;15.90;99.90;;;;;;5038463;28;19947;-80
2022/07/16 04:00:47;;;;;;;;;;;15.80;99.90;;;;;;5051288;28;20245;-76
2022/07/16 04:03:12;;;;;;;;;;;15.80;99.90;;;;;;5034378;28;19967;-80
2022/07/16 04:05:38;;;;;;;;;;;15.80;99.90;;;;;;5031340;28;19917;-76
2022/07/16 04:08:03;;;;;;;;;;;15.80;99.90;;;;;;5049711;28;19917;-80
2022/07/16 04:10:29;;;;;;;;;;;15.70;99.90;;;;;;5047541;28;19935;-75
2022/07/16 04:12:54;;;;;;;;;;;15.60;99.90;;;;;;5046871;28;19939;-81
2022/07/16 04:15:20;;;;;;;;;;;15.60;99.90;;;;;;5033308;28;20019;-76
2022/07/16 04:17:46;;;;;;;;;;;15.60;99.90;;;;;;5041299;28;20000;-77
2022/07/16 04:20:12;;;;;;;;;;;15.50;99.90;;;;;;5034971;28;19917;-82
2022/07/16 04:22:37;;;;;;;;;;;15.50;99.90;;;;;;5042121;28;19913;-76
2022/07/16 04:25:03;;;;;;;;;;;15.50;99.90;;;;;;5036043;28;20016;-78
2022/07/16 04:27:29;;;;;;;;;;;15.40;99.90;;;;;;5047009;28;20015;-82
2022/07/16 04:29:54;;;;;;;;;;;15.40;99.90;;;;;;5049554;28;20276;-80
2022/07/16 04:32:21;;;;;;;;;;;15.50;99.90;;;;;;5042745;28;20297;-82
2022/07/16 04:34:46;;;;;;;;;;;15.50;99.90;;;;;;5050955;28;19916;-77
2022/07/16 04:37:13;;;;;;;;;;;15.50;99.90;;;;;;5041986;28;19913;-76
2022/07/16 04:39:38;;;;;;;;;;;15.60;99.90;;;;;;5042343;28;19917;-78
2022/07/16 04:42:04;;;;;;;;;;;15.70;99.90;;;;;;5050449;28;19921;-78
2022/07/16 04:44:29;;;;;;;;;;;15.70;99.90;;;;;;5044323;28;19913;-75
2022/07/16 04:46:55;;;;;;;;;;;15.70;99.90;;;;;;5034748;28;20223;-79
2022/07/16 04:49:21;;;;;;;;;;;15.70;99.90;;;;;;5034874;28;19963;-77
2022/07/16 04:51:46;;;;;;;;;;;15.80;99.90;;;;;;5032279;28;19928;-80
2022/07/16 04:54:12;;;;;;;;;;;15.80;99.90;;;;;;5035794;28;20257;-77
2022/07/16 04:56:38;;;;;;;;;;;15.80;99.90;;;;;;5034395;28;19921;-79
2022/07/16 04:59:03;;;;;;;;;;;15.80;99.90;;;;;;5051187;28;19960;-82
2022/07/16 05:01:29;;;;;;;;;;;15.90;99.90;;;;;;5038291;28;20014;-77
2022/07/16 05:03:54;;;;;;;;;;;15.90;99.90;;;;;;5034940;28;19917;-82
2022/07/16 05:06:20;;;;;;;;;;;15.90;99.90;;;;;;5032814;28;19956;-77
2022/07/16 05:08:45;;;;;;;;;;;15.90;99.90;;;;;;5035113;28;19937;-82
2022/07/16 05:11:11;;;;;;;;;;;15.90;99.90;;;;;;5034559;28;19909;-78
2022/07/16 05:13:37;;;;;;;;;;;15.90;99.90;;;;;;5035101;28;19923;-77
2022/07/16 05:16:03;;;;;;;;;;;15.90;99.90;;;;;;5033691;28;19939;-82
2022/07/16 05:18:28;;;;;;;;;;;15.90;99.90;;;;;;5032700;28;20300;-80
2022/07/16 05:20:54;;;;;;;;;;;16.00;99.90;;;;;;5032938;28;19925;-75
2022/07/16 05:23:19;;;;;;;;;;;16.00;99.90;;;;;;5034097;28;19913;-81
2022/07/16 05:25:45;;;;;;;;;;;16.10;99.90;;;;;;5032369;28;19932;-76
2022/07/16 05:28:10;;;;;;;;;;;16.20;99.90;;;;;;5016105;28;20008;-75
2022/07/16 05:30:36;;;;;;;;;;;16.10;99.90;;;;;;5034148;28;19951;-77
2022/07/16 05:33:02;;;;;;;;;;;16.20;99.90;;;;;;5034464;28;19960;-76
2022/07/16 05:35:27;;;;;;;;;;;16.20;99.90;;;;;;5034728;28;19909;-77
2022/07/16 05:37:53;;;;;;;;;;;16.20;99.90;;;;;;5031299;28;19913;-81
2022/07/16 05:40:18;;;;;;;;;;;16.20;99.90;;;;;;5033388;28;19917;-80
2022/07/16 05:42:44;;;;;;;;;;;16.30;99.90;;;;;;5035110;28;19923;-77
2022/07/16 05:45:09;;;;;;;;;;;16.20;99.90;;;;;;5039376;28;19913;-80
2022/07/16 05:47:36;;;;;;;;;;;16.30;99.90;;;;;;5039059;28;19924;-81
2022/07/16 05:50:02;;;;;;;;;;;16.30;99.90;;;;;;5048089;28;19955;-81
2022/07/16 05:52:28;;;;;;;;;;;16.30;99.90;;;;;;5057570;28;19996;-75
2022/07/16 05:54:53;;;;;;;;;;;16.30;99.90;;;;;;5045764;28;20002;-73
2022/07/16 05:57:19;;;;;;;;;;;16.30;99.90;;;;;;5044238;28;19921;-73
2022/07/16 05:59:44;;;;;;;;;;;16.40;99.90;;;;;;5050589;28;19924;-74
2022/07/16 06:02:10;;;;;;;;;;;16.40;99.90;;;;;;5049575;28;19912;-76
2022/07/16 06:04:35;;;;;;;;;;;16.40;99.90;;;;;;5043278;28;20430;-80
2022/07/16 06:07:01;;;;;;;;;;;16.40;99.90;;;;;;5053666;28;19955;-75
2022/07/16 06:09:27;;;;;;;;;;;16.40;99.90;;;;;;5050084;28;19925;-73
2022/07/16 06:11:52;;;;;;;;;;;16.40;99.90;;;;;;5048967;28;19909;-77
2022/07/16 06:14:18;;;;;;;;;;;16.50;99.90;;;;;;5040786;28;19922;-78
2022/07/16 06:16:43;;;;;;;;;;;16.50;99.90;;;;;;5045702;28;19917;-84
2022/07/16 06:19:10;;;;;;;;;;;16.50;99.90;;;;;;5050622;28;19913;-79
2022/07/16 06:21:36;;;;;;;;;;;16.50;99.90;;;;;;5037519;28;19921;-75
2022/07/16 06:24:01;;;;;;;;;;;16.50;99.90;;;;;;5037133;28;19913;-77
2022/07/16 06:26:27;;;;;;;;;;;16.60;99.90;;;;;;5035621;28;19913;-80
2022/07/16 06:28:52;;;;;;;;;;;16.70;99.90;;;;;;5036977;28;19913;-80
2022/07/16 06:31:18;;;;;;;;;;;16.70;99.90;;;;;;5036300;28;20031;-75
2022/07/16 06:33:43;;;;;;;;;;;16.70;99.90;;;;;;5037674;28;19928;-77
2022/07/16 06:36:09;;;;;;;;;;;16.70;99.90;;;;;;5037285;28;19924;-76
2022/07/16 06:38:34;;;;;;;;;;;16.70;99.90;;;;;;5036917;28;20331;-78
2022/07/16 06:41:00;;;;;;;;;;;16.80;99.90;;;;;;5037378;28;19918;-79
2022/07/16 06:43:25;;;;;;;;;;;16.80;99.90;;;;;;5035580;28;20000;-75
2022/07/16 06:45:51;;;;;;;;;;;16.80;99.90;;;;;;5035164;28;19913;-76
2022/07/16 06:48:16;;;;;;;;;;;16.80;99.90;;;;;;5035898;28;19913;-76
2022/07/16 06:50:42;;;;;;;;;;;16.70;99.90;;;;;;5036723;28;19912;-78
2022/07/16 06:53:08;;;;;;;;;;;16.80;99.90;;;;;;5035187;28;19944;-75
2022/07/16 06:55:33;;;;;;;;;;;16.80;99.90;;;;;;5035471;28;20318;-76
2022/07/16 06:57:59;;;;;;;;;;;16.80;99.90;;;;;;5036064;28;20327;-75
2022/07/16 07:00:24;;;;;;;;;;;16.80;99.90;;;;;;5035703;28;19929;-76
2022/07/16 07:02:50;;;;;;;;;;;16.90;99.90;;;;;;5035344;28;20305;-76
2022/07/16 07:05:15;;;;;;;;;;;16.90;99.90;;;;;;5035107;28;20320;-78
2022/07/16 07:07:41;;;;;;;;;;;17.00;99.90;;;;;;5037783;28;20308;-80
2022/07/16 07:10:07;;;;;;;;;;;17.10;99.90;;;;;;5035651;28;20239;-78
2022/07/16 07:12:33;;;;;;;;;;;17.10;99.90;;;;;;5034662;28;20264;-76
2022/07/16 07:14:58;;;;;;;;;;;17.10;99.90;;;;;;5034963;28;19952;-79
2022/07/16 07:17:24;;;;;;;;;;;17.10;99.90;;;;;;5037334;28;19963;-77
2022/07/16 07:19:49;;;;;;;;;;;17.20;99.90;;;;;;5030174;28;20335;-77
2022/07/16 07:22:15;;;;;;;;;;;17.20;99.90;;;;;;5033284;28;19921;-76
2022/07/16 07:24:40;;;;;;;;;;;17.30;99.90;;;;;;5036060;28;19913;-76
2022/07/16 07:27:06;;;;;;;;;;;17.30;99.90;;;;;;5035290;28;20275;-77
2022/07/16 07:29:32;;;;;;;;;;;17.20;99.90;;;;;;5038619;28;19967;-82
2022/07/16 07:31:57;;;;;;;;;;;17.30;99.90;;;;;;5041717;28;19959;-76
2022/07/16 07:34:23;;;;;;;;;;;17.30;99.90;;;;;;5050173;28;20015;-77
2022/07/16 07:36:48;;;;;;;;;;;17.30;99.90;;;;;;5043959;28;20419;-77
2022/07/16 07:39:14;;;;;;;;;;;17.30;99.90;;;;;;5039305;28;19921;-79
2022/07/16 07:41:40;;;;;;;;;;;17.50;99.90;;;;;;5034215;28;20343;-78
2022/07/16 07:44:05;;;;;;;;;;;17.50;99.90;;;;;;5035545;28;19970;-77
2022/07/16 07:46:31;;;;;;;;;;;17.50;99.90;;;;;;5035885;28;19955;-79
2022/07/16 07:48:56;;;;;;;;;;;17.60;99.90;;;;;;5034672;28;19920;-77
2022/07/16 07:51:22;;;;;;;;;;;17.70;99.90;;;;;;5034617;28;19921;-76
2022/07/16 07:53:47;;;;;;;;;;;17.70;99.90;;;;;;5037285;28;19913;-76
2022/07/16 07:56:13;;;;;;;;;;;17.80;99.90;;;;;;5042275;28;19956;-74
2022/07/16 07:58:39;;;;;;;;;;;17.80;99.90;;;;;;5035103;28;19956;-78
2022/07/16 08:01:05;;;;;;;;;;;17.90;99.90;;;;;;5034082;28;19924;-81
2022/07/16 08:03:30;;;;;;;;;;;17.90;99.90;;;;;;5034722;28;19913;-78
2022/07/16 08:05:56;;;;;;;;;;;18.10;99.90;;;;;;5034325;28;20008;-78
2022/07/16 08:08:22;;;;;;;;;;;18.20;99.90;;;;;;5034363;28;19964;-76
2022/07/16 08:10:47;;;;;;;;;;;18.30;99.90;;;;;;5035889;28;20008;-73
2022/07/16 08:13:13;;;;;;;;;;;18.30;99.90;;;;;;5035619;28;19913;-79
2022/07/16 08:15:38;;;;;;;;;;;18.50;99.90;;;;;;5034912;28;20031;-75
2022/07/16 08:18:04;;;;;;;;;;;18.70;99.90;;;;;;5034214;28;20347;-77
2022/07/16 08:20:30;;;;;;;;;;;18.80;99.90;;;;;;5036041;28;20007;-78
2022/07/16 08:22:55;;;;;;;;;;;18.90;99.90;;;;;;5047850;28;19924;-76
2022/07/16 08:28:05;;;;;;;;;;;19.10;99.90;;;;;;5046074;28;19943;-76
2022/07/16 08:30:30;;;;;;;;;;;19.10;99.90;;;;;;5041554;28;20315;-75
2022/07/16 08:32:56;;;;;;;;;;;19.10;99.90;;;;;;5048539;28;19935;-76
2022/07/16 08:35:22;;;;;;;;;;;19.40;99.90;;;;;;5039351;28;19921;-79
2022/07/16 08:37:47;;;;;;;;;;;19.60;99.90;;;;;;5034590;28;20360;-78
2022/07/16 08:40:17;;;;;;;;;;;19.60;99.90;;;;;;5033427;28;20331;-78
2022/07/16 08:42:43;;;;;;;;;;;19.80;99.90;;;;;;5042006;28;19971;-75
2022/07/16 08:45:09;;;;;;;;;;;19.90;99.90;;;;;;5039207;28;19921;-77
2022/07/16 08:47:35;;;;;;;;;;;20.00;99.90;;;;;;5047819;28;19924;-77
2022/07/16 08:50:03;;;;;;;;;;;20.10;99.90;;;;;;5038595;28;19916;-77
2022/07/16 08:52:29;;;;;;;;;;;19.90;99.90;;;;;;5044009;28;19917;-75
2022/07/16 08:54:55;;;;;;;;;;;20.00;99.90;;;;;;5050303;28;19912;-78
2022/07/16 08:57:22;;;;;;;;;;;20.10;99.90;;;;;;5040545;28;19913;-77
2022/07/16 08:59:48;;;;;;;;;;;20.30;99.90;;;;;;5048100;28;19916;-75
2022/07/16 09:02:14;;;;;;;;;;;19.90;99.80;;;;;;5038791;28;19913;-78
2022/07/16 09:04:41;;;;;;;;;;;20.00;99.90;;;;;;5035977;28;19923;-75
2022/07/16 09:07:06;;;;;;;;;;;20.00;99.40;;;;;;5032858;28;19917;-76
2022/07/16 09:09:32;;;;;;;;;;;19.90;99.90;;;;;;5034684;28;19920;-76
2022/07/16 09:11:58;;;;;;;;;;;19.90;99.50;;;;;;5034061;28;20012;-77
2022/07/16 09:14:23;;;;;;;;;;;19.90;99.90;;;;;;5034350;28;20004;-82
2022/07/16 09:16:50;;;;;;;;;;;20.20;99.70;;;;;;5034395;28;19917;-80
2022/07/16 09:19:20;;;;;;;;;;;20.50;99.80;;;;;;5033880;28;20372;-76
2022/07/16 09:22:01;;;;;;;;;;;20.50;99.90;;;;;;5027933;28;19999;-75
2022/07/16 09:24:54;;;;;;;;;;;20.60;98.40;;;;;;5032620;28;19913;-78
2022/07/16 09:27:22;;;;;;;;;;;20.70;98.00;;;;;;5031912;28;19913;-77
2022/07/16 09:29:58;;;;;;;;;;;20.50;99.60;;;;;;5033967;28;19909;-74
2022/07/16 09:32:28;;;;;;;;;;;20.70;98.90;;;;;;5034535;28;19917;-76
2022/07/16 09:35:13;;;;;;;;;;;21.00;98.60;;;;;;5034846;28;20003;-76
2022/07/16 09:37:45;;;;;;;;;;;20.80;98.50;;;;;;5032551;28;20008;-78
2022/07/16 09:40:11;;;;;;;;;;;20.90;98.20;;;;;;5033078;28;19913;-76
2022/07/16 09:42:37;;;;;;;;;;;20.80;98.40;;;;;;5034831;28;20256;-76
2022/07/16 09:45:03;;;;;;;;;;;20.80;97.70;;;;;;5043392;28;19920;-79
2022/07/16 09:47:28;;;;;;;;;;;20.90;98.40;;;;;;5043066;28;19917;-76
2022/07/16 09:49:54;;;;;;;;;;;20.80;98.00;;;;;;5039739;28;19971;-74
2022/07/16 09:52:33;;;;;;;;;;;21.10;97.90;;;;;;5041196;28;19917;-76
2022/07/16 09:54:58;;;;;;;;;;;21.00;97.40;;;;;;5039326;28;20014;-79
2022/07/16 09:57:26;;;;;;;;;;;20.70;98.00;;;;;;5035826;28;20686;-76
2022/07/16 09:59:52;;;;;;;;;;;20.40;98.60;;;;;;5032149;28;19928;-77
2022/07/16 10:02:18;;;;;;;;;;;20.20;98.30;;;;;;5035585;28;19913;-78
2022/07/16 10:04:43;;;;;;;;;;;20.30;98.70;;;;;;5033729;28;20359;-75
2022/07/16 10:07:09;;;;;;;;;;;20.10;98.70;;;;;;5029048;28;19917;-77
2022/07/16 10:09:35;;;;;;;;;;;20.00;99.70;;;;;;5027485;28;20031;-75
2022/07/16 10:12:06;;;;;;;;;;;20.00;99.00;;;;;;5031538;28;19917;-76
2022/07/16 10:14:33;;;;;;;;;;;20.30;99.00;;;;;;5042804;28;19932;-78
2022/07/16 10:17:01;;;;;;;;;;;20.30;98.20;;;;;;5028468;28;19917;-77
2022/07/16 10:19:35;;;;;;;;;;;20.60;98.90;;;;;;5028130;28;19940;-74
2022/07/16 10:22:14;;;;;;;;;;;20.80;98.70;;;;;;5028614;28;19921;-76
2022/07/16 10:24:43;;;;;;;;;;;20.90;97.00;;;;;;5030045;28;20483;-77
2022/07/16 10:27:21;;;;;;;;;;;21.10;97.10;;;;;;5030774;28;19917;-76
2022/07/16 10:29:47;;;;;;;;;;;21.30;97.40;;;;;;5044857;28;19916;-77
2022/07/16 10:32:28;;;;;;;;;;;21.40;97.40;;;;;;5030775;28;19917;-76
2022/07/16 10:34:54;;;;;;;;;;;21.60;96.90;;;;;;5032429;28;19928;-73
2022/07/16 10:37:28;;;;;;;;;;;21.50;98.10;;;;;;5034897;28;20221;-77
2022/07/16 10:39:59;;;;;;;;;;;21.80;96.90;;;;;;5033893;28;20300;-75
2022/07/16 10:42:24;;;;;;;;;;;21.50;97.10;;;;;;5037188;28;19921;-76
2022/07/16 10:44:50;;;;;;;;;;;21.30;96.70;;;;;;5036467;28;20028;-77
2022/07/16 10:47:17;;;;;;;;;;;20.70;97.10;;;;;;5032922;28;19921;-77
2022/07/16 10:49:43;;;;;;;;;;;20.60;98.10;;;;;;5035382;28;20305;-78
2022/07/16 10:52:09;;;;;;;;;;;20.70;98.40;;;;;;5037061;28;19909;-75
2022/07/16 10:54:39;;;;;;;;;;;20.70;98.60;;;;;;5037337;28;19936;-78
2022/07/16 10:57:06;;;;;;;;;;;21.10;96.70;;;;;;5035809;28;19913;-78
2022/07/16 10:59:36;;;;;;;;;;;21.70;98.80;;;;;;5035336;28;20560;-79
2022/07/16 11:02:03;;;;;;;;;;;22.00;97.00;;;;;;5037095;28;19917;-75
2022/07/16 11:04:39;;;;;;;;;;;21.40;95.90;;;;;;5036865;28;19959;-76
2022/07/16 11:07:09;;;;;;;;;;;21.20;97.20;;;;;;5038083;28;19928;-77
2022/07/16 11:09:36;;;;;;;;;;;21.00;96.80;;;;;;5035473;28;19939;-79
2022/07/16 11:12:09;;;;;;;;;;;21.20;97.70;;;;;;5035425;28;20004;-77
2022/07/16 11:14:35;;;;;;;;;;;21.50;97.80;;;;;;5035248;28;19929;-75
2022/07/16 11:17:02;;;;;;;;;;;22.00;96.00;;;;;;5037065;28;19916;-75
2022/07/16 11:19:27;;;;;;;;;;;21.80;96.00;;;;;;5036341;28;20008;-77
2022/07/16 11:22:00;;;;;;;;;;;21.50;97.00;;;;;;5047616;28;19999;-79
2022/07/16 11:24:26;;;;;;;;;;;21.60;96.20;;;;;;5035396;28;19920;-75
2022/07/16 11:26:52;;;;;;;;;;;21.30;96.60;;;;;;5023563;28;19909;-77
2022/07/16 11:29:19;;;;;;;;;;;21.20;97.20;;;;;;5032288;28;19935;-75
2022/07/16 11:31:45;;;;;;;;;;;21.20;97.00;;;;;;5035613;28;20007;-76
2022/07/16 11:34:11;;;;;;;;;;;21.40;96.70;;;;;;5042534;28;19968;-76
2022/07/16 11:36:41;;;;;;;;;;;21.50;95.20;;;;;;5035525;28;19964;-74
2022/07/16 11:39:11;;;;;;;;;;;21.80;95.50;;;;;;5032543;28;19956;-74
2022/07/16 11:41:39;;;;;;;;;;;22.30;95.40;;;;;;5037428;28;20012;-75
2022/07/16 11:44:09;;;;;;;;;;;22.30;95.50;;;;;;5039886;28;19987;-74
2022/07/16 11:46:40;;;;;;;;;;;22.30;93.70;;;;;;5049285;28;20193;-75
2022/07/16 11:49:06;;;;;;;;;;;22.50;94.00;;;;;;5035158;28;19924;-75
2022/07/16 11:51:31;;;;;;;;;;;22.30;93.90;;;;;;5064322;28;19955;-76
2022/07/16 11:53:57;;;;;;;;;;;22.60;95.40;;;;;;5034890;28;19924;-75
2022/07/16 11:56:34;;;;;;;;;;;22.90;93.50;;;;;;5045858;28;19921;-77
2022/07/16 11:59:00;;;;;;;;;;;22.60;94.40;;;;;;5040984;28;20334;-77
2022/07/16 12:01:30;;;;;;;;;;;22.70;93.50;;;;;;5042826;28;19920;-74
2022/07/16 12:03:56;;;;;;;;;;;22.90;93.60;;;;;;5043887;28;19925;-72
2022/07/16 12:06:22;;;;;;;;;;;22.60;92.80;;;;;;5034755;28;19974;-76
2022/07/16 12:08:54;;;;;;;;;;;22.70;94.30;;;;;;5030830;28;20208;-74
2022/07/16 12:11:19;;;;;;;;;;;22.70;92.90;;;;;;5031135;28;19921;-72
2022/07/16 12:13:52;;;;;;;;;;;22.70;93.10;;;;;;5038425;28;19927;-74
2022/07/16 12:16:18;;;;;;;;;;;22.70;93.30;;;;;;5053376;28;20323;-80
2022/07/16 12:19:02;;;;;;;;;;;22.50;93.30;;;;;;5040898;28;19917;-74
2022/07/16 12:21:29;;;;;;;;;;;22.40;93.40;;;;;;5036202;28;20312;-76
2022/07/16 12:23:55;;;;;;;;;;;22.60;94.40;;;;;;5044766;28;19917;-76
2022/07/16 12:26:41;;;;;;;;;;;22.70;93.40;;;;;;5043968;28;19945;-74
2022/07/16 12:29:08;;;;;;;;;;;22.80;93.20;;;;;;5046786;28;19912;-74
2022/07/16 12:31:34;;;;;;;;;;;22.90;93.20;;;;;;5048448;28;19913;-74
2022/07/16 12:34:00;;;;;;;;;;;22.60;93.60;;;;;;5038345;28;19913;-81
2022/07/16 12:36:36;;;;;;;;;;;22.50;94.20;;;;;;5048015;28;20303;-74
2022/07/16 12:39:06;;;;;;;;;;;22.70;95.10;;;;;;5041092;28;19920;-79
2022/07/16 12:41:39;;;;;;;;;;;23.20;96.10;;;;;;5048202;28;19948;-76
2022/07/16 12:44:06;;;;;;;;;;;23.30;93.30;;;;;;5041720;28;20262;-75
2022/07/16 12:46:34;;;;;;;;;;;23.30;93.30;;;;;;5037232;28;19921;-75
2022/07/16 12:49:00;;;;;;;;;;;23.30;93.90;;;;;;5043423;28;19921;-74
2022/07/16 12:51:28;;;;;;;;;;;23.50;93.40;;;;;;5045493;28;20005;-77
2022/07/16 12:53:55;;;;;;;;;;;23.40;94.00;;;;;;5042767;28;19991;-73
2022/07/16 12:59:05;;;;;;;;;;;23.30;94.70;;;;;;5038885;28;19924;-73
2022/07/16 13:01:31;;;;;;;;;;;23.20;93.80;;;;;;5049917;28;20304;-73
2022/07/16 13:03:56;;;;;;;;;;;23.20;94.60;;;;;;5043333;28;20011;-74
2022/07/16 13:06:22;;;;;;;;;;;23.20;92.80;;;;;;5039217;28;19927;-75
2022/07/16 13:08:49;;;;;;;;;;;23.20;93.80;;;;;;5039714;28;20323;-75
2022/07/16 13:11:17;;;;;;;;;;;22.90;93.90;;;;;;5034705;28;19944;-76
2022/07/16 13:13:44;;;;;;;;;;;22.90;93.30;;;;;;5034745;28;19917;-76
2022/07/16 13:16:09;;;;;;;;;;;22.70;94.70;;;;;;5039752;28;19951;-75
2022/07/16 13:18:36;;;;;;;;;;;22.60;93.30;;;;;;5043980;28;19999;-75
2022/07/16 13:21:01;;;;;;;;;;;22.70;94.70;;;;;;5048250;28;20304;-75
2022/07/16 13:23:27;;;;;;;;;;;22.90;94.90;;;;;;5040403;28;19913;-74
2022/07/16 13:25:53;;;;;;;;;;;23.30;95.50;;;;;;5048290;28;19921;-75
2022/07/16 13:28:19;;;;;;;;;;;23.10;93.70;;;;;;5046033;28;19965;-75
2022/07/16 13:30:45;;;;;;;;;;;23.00;94.20;;;;;;5050694;28;19920;-77
2022/07/16 13:33:11;;;;;;;;;;;22.90;94.00;;;;;;5040569;28;19921;-75
2022/07/16 13:35:37;;;;;;;;;;;23.00;93.80;;;;;;5034764;28;19941;-73
2022/07/16 13:38:02;;;;;;;;;;;22.90;94.20;;;;;;5028745;28;19913;-75
2022/07/16 13:40:28;;;;;;;;;;;22.80;94.00;;;;;;5036567;28;20306;-79
2022/07/16 13:42:54;;;;;;;;;;;23.00;93.60;;;;;;5042793;28;19924;-75
2022/07/16 13:45:20;;;;;;;;;;;23.00;94.00;;;;;;5041316;28;20296;-73
2022/07/16 13:47:45;;;;;;;;;;;22.90;93.70;;;;;;5045992;28;19917;-76
2022/07/16 13:50:11;;;;;;;;;;;22.90;93.80;;;;;;5040774;28;19935;-73
2022/07/16 13:52:37;;;;;;;;;;;22.50;93.40;;;;;;5024771;28;19964;-74
2022/07/16 13:55:03;;;;;;;;;;;22.60;93.90;;;;;;5030982;28;19977;-76
2022/07/16 14:00:13;;;;;;;;;;;22.40;93.10;;;;;;5030073;28;20004;-77
2022/07/16 14:02:39;;;;;;;;;;;22.20;94.70;;;;;;5030054;28;20012;-80
2022/07/16 14:05:04;;;;;;;;;;;21.80;94.90;;;;;;5031096;28;19971;-74
2022/07/16 14:07:30;;;;;;;;;;;21.90;96.70;;;;;;5036713;28;20300;-74
2022/07/16 14:09:56;;;;;;;;;;;22.00;95.10;;;;;;5037219;28;19971;-74
2022/07/16 14:12:21;;;;;;;;;;;22.10;94.40;;;;;;5037611;28;19913;-75
2022/07/16 14:14:47;;;;;;;;;;;22.00;94.30;;;;;;5037676;28;19921;-73
2022/07/16 14:17:13;;;;;;;;;;;22.10;96.80;;;;;;5037532;28;19956;-74
2022/07/16 14:19:39;;;;;;;;;;;22.00;96.40;;;;;;5038330;28;19913;-74
2022/07/16 14:22:06;;;;;;;;;;;21.70;95.80;;;;;;5037912;28;19967;-76
2022/07/16 14:24:33;;;;;;;;;;;21.40;96.60;;;;;;5036638;28;19913;-76
2022/07/16 14:26:58;;;;;;;;;;;21.50;97.50;;;;;;5037959;28;19913;-79
2022/07/16 14:29:24;;;;;;;;;;;21.80;97.60;;;;;;5038080;28;19962;-78